Time;durP1;ratioP1;P1;durP2;ratioP2;P2;SDS_P1;SDS_P2;PMS_P1;PMS_P2;Temp;Humidity;BMP_temperature;BMP_pressure;BME280_temperature;BME280_humidity;BME280_pressure;Samples;Min_cycle;Max_cycle;Signal;HPM_P1;HPM_P2
2022/12/19 00:01:20;;;;;;;54.85;29.05;;;2.20;99.90;;;;;;4997323;28;20113;-81
2022/12/19 00:03:51;;;;;;;54.95;29.85;;;2.30;99.90;;;;;;4997600;28;20062;-81
2022/12/19 00:06:19;;;;;;;54.95;28.58;;;2.30;99.90;;;;;;4993410;28;20045;-81
2022/12/19 00:08:46;;;;;;;56.95;30.35;;;2.40;99.90;;;;;;4994457;28;20101;-82
2022/12/19 00:11:13;;;;;;;55.25;29.48;;;2.30;99.90;;;;;;4994317;28;20023;-82
2022/12/19 00:13:39;;;;;;;52.65;28.42;;;2.30;99.90;;;;;;4994204;28;20112;-82
2022/12/19 00:16:09;;;;;;;54.35;28.67;;;2.40;99.90;;;;;;4994018;28;20030;-82
2022/12/19 00:18:35;;;;;;;59.00;29.45;;;2.40;99.90;;;;;;5018415;28;20159;-82
2022/12/19 00:21:04;;;;;;;55.05;29.23;;;2.40;99.90;;;;;;5041683;28;20041;-82
2022/12/19 00:23:31;;;;;;;54.95;29.23;;;2.40;99.90;;;;;;5016462;28;20507;-82
2022/12/19 00:26:13;;;;;;;54.03;27.98;;;2.30;99.90;;;;;;5016956;28;20021;-82
2022/12/19 00:28:45;;;;;;;59.75;30.70;;;2.40;99.90;;;;;;5021808;28;20032;-82
2022/12/19 00:31:11;;;;;;;56.40;30.48;;;2.30;99.90;;;;;;5016500;28;20519;-83
2022/12/19 00:33:36;;;;;;;56.95;30.02;;;2.30;99.90;;;;;;4999176;28;20038;-83
2022/12/19 00:36:09;;;;;;;56.15;28.48;;;2.40;99.90;;;;;;5022038;28;20021;-81
2022/12/19 00:38:35;;;;;;;56.88;28.77;;;2.40;99.90;;;;;;5024408;28;20171;-82
2022/12/19 00:41:16;;;;;;;53.25;28.27;;;2.40;99.90;;;;;;5026610;28;20041;-81
2022/12/19 00:43:42;;;;;;;61.33;30.90;;;2.50;99.90;;;;;;5038341;28;20109;-81
2022/12/19 00:46:13;;;;;;;56.70;29.65;;;2.50;99.90;;;;;;5034822;28;20454;-82
2022/12/19 00:48:40;;;;;;;59.95;30.25;;;2.40;99.90;;;;;;5018906;28;20116;-82
2022/12/19 00:51:09;;;;;;;56.30;29.60;;;2.50;99.90;;;;;;5004084;28;20039;-82
2022/12/19 00:53:35;;;;;;;60.35;30.08;;;2.40;99.90;;;;;;5016768;28;20025;-82
2022/12/19 00:56:03;;;;;;;63.80;32.38;;;2.50;99.90;;;;;;5015473;28;20091;-82
2022/12/19 00:58:29;;;;;;;63.55;31.75;;;2.50;99.90;;;;;;5017215;28;20037;-82
2022/12/19 01:00:54;;;;;;;56.75;29.58;;;2.40;99.90;;;;;;5016517;28;20025;-83
2022/12/19 01:03:20;;;;;;;64.05;31.73;;;2.40;99.90;;;;;;5016968;28;20018;-82
2022/12/19 01:05:45;;;;;;;61.97;30.92;;;2.40;99.90;;;;;;5016725;28;20418;-82
2022/12/19 01:08:11;;;;;;;59.33;29.90;;;2.40;99.90;;;;;;5017011;28;20052;-82
2022/12/19 01:10:43;;;;;;;62.60;31.58;;;2.40;99.90;;;;;;4999607;28;20334;-83
2022/12/19 01:13:09;;;;;;;60.38;31.17;;;2.50;99.90;;;;;;5033533;28;20026;-83
2022/12/19 01:15:38;;;;;;;56.83;29.58;;;2.40;99.90;;;;;;4999560;28;20045;-83
2022/12/19 01:18:03;;;;;;;60.42;30.48;;;2.50;99.90;;;;;;5015515;28;20111;-83
2022/12/19 01:20:29;;;;;;;55.95;29.98;;;2.50;99.90;;;;;;4983038;28;20466;-82
2022/12/19 01:22:55;;;;;;;56.72;29.67;;;2.50;99.90;;;;;;4999665;28;20022;-83
2022/12/19 01:25:20;;;;;;;56.58;30.20;;;2.60;99.90;;;;;;5032853;28;20061;-82
2022/12/19 01:27:46;;;;;;;58.17;30.02;;;2.60;99.90;;;;;;5034564;28;20437;-83
2022/12/19 01:30:12;;;;;;;58.05;30.33;;;2.70;99.90;;;;;;5020423;28;20389;-82
2022/12/19 01:32:37;;;;;;;62.42;32.20;;;2.70;99.90;;;;;;5022557;28;20033;-83
2022/12/19 01:35:03;;;;;;;58.60;30.55;;;2.70;99.90;;;;;;5041433;28;20124;-83
2022/12/19 01:37:29;;;;;;;62.33;31.98;;;2.70;99.90;;;;;;5008511;28;20032;-82
2022/12/19 01:39:54;;;;;;;58.28;31.08;;;2.70;99.90;;;;;;5022097;28;20350;-83
2022/12/19 01:42:22;;;;;;;56.80;30.08;;;2.70;99.90;;;;;;5005962;28;20030;-83
2022/12/19 01:45:06;;;;;;;59.58;30.58;;;2.70;99.90;;;;;;5039371;28;20029;-83
2022/12/19 01:47:41;;;;;;;57.35;30.13;;;2.80;99.90;;;;;;5040048;28;20056;-83
2022/12/19 01:50:13;;;;;;;53.05;29.63;;;2.80;99.90;;;;;;5025699;28;20503;-83
2022/12/19 01:52:39;;;;;;;57.05;31.73;;;2.80;99.90;;;;;;5045527;28;20021;-82
2022/12/19 01:55:05;;;;;;;60.17;30.70;;;2.80;99.90;;;;;;5044683;28;20083;-82
2022/12/19 01:57:31;;;;;;;58.28;29.08;;;2.80;99.90;;;;;;5035629;28;20049;-82
2022/12/19 01:59:59;;;;;;;59.72;31.38;;;2.90;99.90;;;;;;5028503;28;20030;-83
2022/12/19 02:02:30;;;;;;;55.15;29.65;;;2.90;99.90;;;;;;5033929;28;20028;-83
2022/12/19 02:04:55;;;;;;;53.03;28.75;;;2.90;99.90;;;;;;5030731;28;20112;-83
2022/12/19 02:07:24;;;;;;;66.25;33.67;;;2.90;99.90;;;;;;5025583;28;20114;-83
2022/12/19 02:09:53;;;;;;;59.90;31.88;;;2.90;99.90;;;;;;5039976;28;20075;-83
2022/12/19 02:12:18;;;;;;;58.78;32.80;;;2.90;99.90;;;;;;5039792;28;20071;-82
2022/12/19 02:14:44;;;;;;;60.92;31.45;;;2.90;99.90;;;;;;5040515;28;20029;-82
2022/12/19 02:17:19;;;;;;;59.42;31.73;;;2.90;99.90;;;;;;5020501;28;20044;-81
2022/12/19 02:20:17;;;;;;;61.60;31.50;;;3.00;99.90;;;;;;5038669;28;20108;-82
2022/12/19 02:22:48;;;;;;;65.45;34.08;;;3.00;99.90;;;;;;5039544;28;20093;-83
2022/12/19 02:25:59;;;;;;;61.75;32.60;;;3.00;99.90;;;;;;5023711;28;20030;-82
2022/12/19 02:29:20;;;;;;;63.15;31.90;;;3.00;99.90;;;;;;5043841;28;20021;-82
2022/12/19 02:32:12;;;;;;;62.33;32.50;;;3.00;99.90;;;;;;4965157;29;20027;-81
2022/12/19 02:34:57;;;;;;;64.80;33.05;;;3.00;99.90;;;;;;5041451;28;20081;-83
2022/12/19 02:37:29;;;;;;;57.38;30.63;;;3.10;99.90;;;;;;5027382;28;20029;-83
2022/12/19 02:39:57;;;;;;;59.42;30.98;;;3.10;99.90;;;;;;5048004;28;20017;-82
2022/12/19 02:42:29;;;;;;;64.13;32.70;;;3.20;99.90;;;;;;5046291;28;20101;-82
2022/12/19 02:44:59;;;;;;;62.25;32.97;;;3.30;99.90;;;;;;5045639;28;20113;-81
2022/12/19 02:47:26;;;;;;;59.20;30.35;;;3.20;99.90;;;;;;5046333;28;20059;-81
2022/12/19 02:49:51;;;;;;;56.17;30.30;;;3.20;99.90;;;;;;5031352;28;20048;-82
2022/12/19 02:52:20;;;;;;;58.97;30.52;;;3.30;99.90;;;;;;5012852;28;20029;-82
2022/12/19 02:54:49;;;;;;;58.30;30.92;;;3.30;99.90;;;;;;5031053;28;20036;-82
2022/12/19 02:57:33;;;;;;;58.75;31.30;;;3.30;99.90;;;;;;5028232;28;20028;-82
2022/12/19 03:00:04;;;;;;;58.03;30.33;;;3.30;99.90;;;;;;5044318;28;20014;-82
2022/12/19 03:02:53;;;;;;;58.60;31.23;;;3.40;99.90;;;;;;5040369;28;20033;-82
2022/12/19 03:05:38;;;;;;;64.63;31.17;;;3.40;99.90;;;;;;5020601;28;20044;-82
2022/12/19 03:08:41;;;;;;;61.42;31.42;;;3.40;99.90;;;;;;5052515;28;20104;-83
2022/12/19 03:11:12;;;;;;;62.58;31.65;;;3.50;99.90;;;;;;5049767;28;20025;-83
2022/12/19 03:13:43;;;;;;;59.78;32.00;;;3.50;99.90;;;;;;5050504;28;20036;-83
2022/12/19 03:16:11;;;;;;;58.40;30.77;;;3.50;99.90;;;;;;5050865;28;20060;-82
2022/12/19 03:18:37;;;;;;;58.55;30.40;;;3.40;99.90;;;;;;5048974;28;20041;-82
2022/12/19 03:21:30;;;;;;;59.10;30.83;;;3.50;99.90;;;;;;5033312;28;20089;-82
2022/12/19 03:23:57;;;;;;;60.40;30.33;;;3.50;99.90;;;;;;5049446;28;20029;-83
2022/12/19 03:26:27;;;;;;;62.85;30.65;;;3.50;99.90;;;;;;5048911;28;20051;-83
2022/12/19 03:29:37;;;;;;;59.40;29.48;;;3.50;99.90;;;;;;5032370;28;20479;-82
2022/12/19 03:32:06;;;;;;;56.10;30.10;;;3.60;99.90;;;;;;4949765;29;20122;-83
2022/12/19 03:34:38;;;;;;;57.15;30.98;;;3.60;99.90;;;;;;5033567;28;20060;-82
2022/12/19 03:37:07;;;;;;;62.80;31.15;;;3.60;99.90;;;;;;5025944;28;20025;-82
2022/12/19 03:39:33;;;;;;;58.95;31.45;;;3.50;99.90;;;;;;5036371;28;20068;-82
2022/12/19 03:44:48;;;;;;;66.55;31.55;;;3.50;99.90;;;;;;5040435;28;20059;-82
2022/12/19 03:47:38;;;;;;;62.90;31.38;;;3.60;99.90;;;;;;5045885;28;20013;-81
2022/12/19 03:50:05;;;;;;;56.83;29.63;;;3.60;99.90;;;;;;5057223;28;20021;-82
2022/12/19 03:52:43;;;;;;;60.75;30.98;;;3.70;99.90;;;;;;5057890;28;20501;-82
2022/12/19 03:55:20;;;;;;;58.67;29.80;;;3.70;99.90;;;;;;5045330;28;20037;-82
2022/12/19 03:57:49;;;;;;;61.75;29.60;;;3.70;99.90;;;;;;5017969;28;20025;-82
2022/12/19 04:00:17;;;;;;;55.53;30.15;;;3.80;99.90;;;;;;5025214;28;20028;-83
2022/12/19 04:02:47;;;;;;;53.25;28.70;;;3.80;99.90;;;;;;5024874;28;20044;-82
2022/12/19 04:05:18;;;;;;;56.28;28.88;;;3.80;99.90;;;;;;5025302;28;20025;-82
2022/12/19 04:07:45;;;;;;;60.05;31.27;;;3.80;99.90;;;;;;5040179;28;20014;-82
2022/12/19 04:10:15;;;;;;;55.55;29.13;;;3.90;99.90;;;;;;5020572;28;20426;-82
2022/12/19 04:12:47;;;;;;;54.83;28.80;;;3.90;99.90;;;;;;5038358;28;20049;-82
2022/12/19 04:15:14;;;;;;;48.67;27.58;;;3.90;99.90;;;;;;5022910;28;20057;-82
2022/12/19 04:17:55;;;;;;;55.97;29.63;;;4.00;99.90;;;;;;4996889;28;20458;-82
2022/12/19 04:20:23;;;;;;;59.28;29.05;;;4.00;99.90;;;;;;5000154;28;20022;-83
2022/12/19 04:23:17;;;;;;;54.13;26.77;;;4.00;99.90;;;;;;4999669;28;20027;-82
2022/12/19 04:25:48;;;;;;;50.28;27.25;;;4.00;99.90;;;;;;4994963;28;20028;-82
2022/12/19 04:28:20;;;;;;;52.42;27.52;;;4.00;99.90;;;;;;4995392;28;20038;-82
2022/12/19 04:30:47;;;;;;;56.97;29.80;;;4.00;99.90;;;;;;5001276;28;20025;-83
2022/12/19 04:33:13;;;;;;;53.78;28.45;;;4.00;99.90;;;;;;4996309;28;20022;-82
2022/12/19 04:35:39;;;;;;;54.22;28.13;;;4.10;99.90;;;;;;4995673;28;20117;-83
2022/12/19 04:38:05;;;;;;;50.80;27.30;;;4.10;99.90;;;;;;4996358;28;20165;-83
2022/12/19 04:40:31;;;;;;;52.38;27.45;;;4.10;99.90;;;;;;4996308;28;20173;-83
2022/12/19 04:42:56;;;;;;;50.67;28.48;;;4.20;99.90;;;;;;4996507;28;20030;-82
2022/12/19 04:45:22;;;;;;;48.10;26.73;;;4.20;99.90;;;;;;4977559;28;20038;-82
2022/12/19 04:47:48;;;;;;;51.88;27.17;;;4.20;99.90;;;;;;4993133;28;20038;-82
2022/12/19 04:50:13;;;;;;;50.30;26.15;;;4.30;99.90;;;;;;4977003;28;20085;-82
2022/12/19 04:52:39;;;;;;;48.28;27.58;;;4.30;99.90;;;;;;4976904;28;20054;-82
2022/12/19 04:55:05;;;;;;;48.60;26.02;;;4.30;99.90;;;;;;4976966;28;20048;-82
2022/12/19 04:57:31;;;;;;;51.15;27.45;;;4.30;99.90;;;;;;4995330;28;20118;-81
2022/12/19 04:59:56;;;;;;;45.33;25.35;;;4.40;99.90;;;;;;4994370;28;20432;-80
2022/12/19 05:02:23;;;;;;;45.58;26.73;;;4.30;99.90;;;;;;4993192;28;20109;-81
2022/12/19 05:04:49;;;;;;;47.25;25.30;;;4.40;99.90;;;;;;4995384;28;20037;-83
2022/12/19 05:07:15;;;;;;;45.35;24.77;;;4.40;99.90;;;;;;4998486;28;20034;-82
2022/12/19 05:09:41;;;;;;;41.08;24.90;;;4.40;99.90;;;;;;4997686;28;20026;-81
2022/12/19 05:12:06;;;;;;;43.00;24.38;;;4.50;99.90;;;;;;4981883;28;20030;-82
2022/12/19 05:14:32;;;;;;;42.67;23.83;;;4.50;99.90;;;;;;4997445;28;20026;-82
2022/12/19 05:16:58;;;;;;;40.35;23.83;;;4.50;99.90;;;;;;4998423;28;20034;-82
2022/12/19 05:19:23;;;;;;;41.17;22.20;;;4.60;99.90;;;;;;4997666;28;20062;-82
2022/12/19 05:21:49;;;;;;;37.72;20.85;;;4.60;99.90;;;;;;4996910;28;20053;-82
2022/12/19 05:24:15;;;;;;;37.88;22.27;;;4.70;99.90;;;;;;4997108;28;20038;-82
2022/12/19 05:26:40;;;;;;;36.35;21.65;;;4.70;99.90;;;;;;4980757;28;20199;-83
2022/12/19 05:29:07;;;;;;;33.40;19.75;;;4.70;99.90;;;;;;4998715;28;20356;-83
2022/12/19 05:31:32;;;;;;;41.03;22.60;;;4.80;99.90;;;;;;4998664;28;20069;-81
2022/12/19 05:33:58;;;;;;;34.55;20.23;;;4.80;99.90;;;;;;4980500;28;20402;-83
2022/12/19 05:36:23;;;;;;;39.38;20.75;;;4.80;99.90;;;;;;4996370;28;20030;-82
2022/12/19 05:38:49;;;;;;;34.28;20.92;;;4.90;99.90;;;;;;4980980;28;20034;-82
2022/12/19 05:41:18;;;;;;;33.67;20.85;;;4.90;99.90;;;;;;4997817;28;20054;-82
2022/12/19 05:43:47;;;;;;;36.63;21.58;;;5.00;99.90;;;;;;4996643;28;20367;-82
2022/12/19 05:46:13;;;;;;;36.13;21.02;;;5.00;99.90;;;;;;4996708;28;20030;-79
2022/12/19 05:48:39;;;;;;;34.50;20.27;;;5.00;99.90;;;;;;4997255;28;20164;-83
2022/12/19 05:51:05;;;;;;;33.83;20.20;;;5.00;99.90;;;;;;5001056;28;20027;-82
2022/12/19 05:53:30;;;;;;;31.58;18.75;;;5.10;99.90;;;;;;5002661;28;20026;-81
2022/12/19 05:56:16;;;;;;;30.20;19.13;;;5.10;99.90;;;;;;5002244;28;20101;-82
2022/12/19 05:58:43;;;;;;;29.60;18.75;;;5.10;99.90;;;;;;5000031;28;20110;-81
2022/12/19 06:01:17;;;;;;;29.58;17.92;;;5.20;99.90;;;;;;4999832;28;20026;-83
2022/12/19 06:03:42;;;;;;;;;;;5.20;99.90;;;;;;5002401;28;20046;-81
2022/12/19 06:06:12;;;;;;;33.67;19.17;;;5.20;99.90;;;;;;5001976;28;20370;-82
2022/12/19 06:08:38;;;;;;;27.20;17.65;;;5.20;99.90;;;;;;4999492;28;20458;-82
2022/12/19 06:11:05;;;;;;;32.15;17.50;;;5.20;99.90;;;;;;4986373;28;20034;-81
2022/12/19 06:13:32;;;;;;;29.92;18.27;;;5.20;99.90;;;;;;5004944;28;20378;-82
2022/12/19 06:16:15;;;;;;;31.63;17.90;;;5.30;99.90;;;;;;5005553;28;19941;-81
2022/12/19 06:18:42;;;;;;;32.70;17.20;;;5.30;99.90;;;;;;5033362;28;20046;-80
2022/12/19 06:21:14;;;;;;;30.63;17.13;;;5.30;99.90;;;;;;5028724;28;20030;-80
2022/12/19 06:23:40;;;;;;;27.42;16.88;;;5.30;99.90;;;;;;5029998;28;20029;-81
2022/12/19 06:26:07;;;;;;;29.05;17.23;;;5.30;99.90;;;;;;5050987;28;20071;-81
2022/12/19 06:28:34;;;;;;;30.50;18.20;;;5.40;99.90;;;;;;5051594;28;20064;-82
2022/12/19 06:31:03;;;;;;;28.27;17.95;;;5.40;99.90;;;;;;5035508;28;20025;-81
2022/12/19 06:33:30;;;;;;;30.48;18.73;;;5.40;99.90;;;;;;5051980;28;20024;-81
2022/12/19 06:36:19;;;;;;;33.03;17.85;;;5.50;99.90;;;;;;5034099;28;20068;-82
2022/12/19 06:38:45;;;;;;;31.00;17.95;;;5.50;99.90;;;;;;5047170;28;20107;-82
2022/12/19 06:44:00;;;;;;;29.90;18.13;;;5.60;99.90;;;;;;5036140;28;20083;-82
2022/12/19 06:46:25;;;;;;;32.97;18.70;;;5.60;99.90;;;;;;5044768;28;20017;-80
2022/12/19 06:48:51;;;;;;;28.90;18.17;;;5.60;99.90;;;;;;4994382;28;20025;-81
2022/12/19 06:51:17;;;;;;;38.03;21.92;;;5.70;99.90;;;;;;5030388;28;20009;-79
2022/12/19 06:53:43;;;;;;;42.22;19.88;;;5.70;99.90;;;;;;5044311;28;20105;-79
2022/12/19 06:56:12;;;;;;;35.65;19.27;;;5.80;99.90;;;;;;5018272;28;20049;-76
2022/12/19 06:58:43;;;;;;;34.35;19.50;;;5.70;99.90;;;;;;5035649;28;20018;-76
2022/12/19 07:01:22;;;;;;;38.28;19.00;;;5.80;99.90;;;;;;5035205;28;20529;-74
2022/12/19 07:03:48;;;;;;;33.92;19.75;;;5.80;99.90;;;;;;5034882;28;20033;-75
2022/12/19 07:06:14;;;;;;;33.88;19.00;;;5.80;99.90;;;;;;5035417;28;20013;-76
2022/12/19 07:08:40;;;;;;;62.38;19.42;;;5.90;99.90;;;;;;5035379;28;20361;-76
2022/12/19 07:11:06;;;;;;;35.83;18.70;;;5.90;99.90;;;;;;5018032;28;20095;-77
2022/12/19 07:13:31;;;;;;;31.23;17.85;;;5.90;99.90;;;;;;5035132;28;20509;-78
2022/12/19 07:15:59;;;;;;;30.40;17.67;;;6.00;99.90;;;;;;5017646;28;20041;-74
2022/12/19 07:18:25;;;;;;;34.97;17.48;;;6.00;99.90;;;;;;5034734;28;20045;-77
2022/12/19 07:20:51;;;;;;;26.65;16.58;;;6.10;99.90;;;;;;4984882;28;20025;-76
2022/12/19 07:23:19;;;;;;;26.08;16.33;;;6.20;99.90;;;;;;5017085;28;20036;-77
2022/12/19 07:25:45;;;;;;;33.22;17.80;;;6.20;99.90;;;;;;5016899;28;20504;-76
2022/12/19 07:28:11;;;;;;;25.83;16.75;;;6.30;99.90;;;;;;5016472;28;20037;-78
2022/12/19 07:30:37;;;;;;;24.45;15.10;;;6.30;99.90;;;;;;5034281;28;20362;-77
2022/12/19 07:33:03;;;;;;;28.98;16.63;;;6.40;99.90;;;;;;4984430;28;20036;-78
2022/12/19 07:35:28;;;;;;;27.75;17.52;;;6.40;99.90;;;;;;5000648;28;20084;-77
2022/12/19 07:37:59;;;;;;;26.55;16.83;;;6.50;99.90;;;;;;5001083;28;20078;-77
2022/12/19 07:40:25;;;;;;;25.58;15.93;;;6.50;99.90;;;;;;5016595;28;20021;-77
2022/12/19 07:42:50;;;;;;;24.40;15.05;;;6.40;99.90;;;;;;5016819;28;20047;-78
2022/12/19 07:45:16;;;;;;;23.33;14.00;;;6.50;99.90;;;;;;5000466;28;20036;-77
2022/12/19 07:47:42;;;;;;;25.65;15.20;;;6.50;99.90;;;;;;5000277;28;20520;-78
2022/12/19 07:50:08;;;;;;;24.60;14.13;;;6.50;99.90;;;;;;5034021;28;20032;-77
2022/12/19 07:52:33;;;;;;;22.58;14.00;;;6.50;99.90;;;;;;5034247;28;20030;-77
2022/12/19 07:54:59;;;;;;;24.25;15.07;;;6.60;99.90;;;;;;5034064;28;20029;-78
2022/12/19 07:57:24;;;;;;;23.80;14.10;;;6.60;99.90;;;;;;4984197;28;20030;-77
2022/12/19 07:59:50;;;;;;;24.05;13.27;;;6.60;99.90;;;;;;5016338;28;20099;-78
2022/12/19 08:02:16;;;;;;;19.77;13.27;;;6.70;99.90;;;;;;5000162;28;20033;-78
2022/12/19 08:04:41;;;;;;;26.45;14.60;;;6.70;99.90;;;;;;4999851;28;20462;-77
2022/12/19 08:07:07;;;;;;;24.00;15.00;;;6.70;99.90;;;;;;5016150;28;20454;-78
2022/12/19 08:09:32;;;;;;;25.42;15.20;;;6.80;99.90;;;;;;5034719;28;20052;-79
2022/12/19 08:11:58;;;;;;;21.35;13.35;;;6.80;99.90;;;;;;5015705;28;20025;-79
2022/12/19 08:14:24;;;;;;;21.65;13.15;;;6.80;99.90;;;;;;5016019;28;20033;-78
2022/12/19 08:16:49;;;;;;;22.33;13.68;;;6.80;99.90;;;;;;4998716;28;20017;-80
2022/12/19 08:19:15;;;;;;;23.08;13.10;;;6.90;99.90;;;;;;5033408;28;20163;-79
2022/12/19 08:21:40;;;;;;;19.60;12.70;;;7.00;99.90;;;;;;5033696;28;20052;-80
2022/12/19 08:24:06;;;;;;;16.48;11.80;;;7.00;99.90;;;;;;5034074;28;20035;-80
2022/12/19 08:26:32;;;;;;;19.80;12.25;;;7.00;99.90;;;;;;5016566;28;20080;-80
2022/12/19 08:28:57;;;;;;;22.90;13.10;;;7.10;99.90;;;;;;5016065;28;20025;-79
2022/12/19 08:31:26;;;;;;;19.23;12.25;;;7.20;99.90;;;;;;4999812;28;20032;-79
2022/12/19 08:33:53;;;;;;;21.92;13.07;;;7.20;99.90;;;;;;5033902;28;20030;-79
2022/12/19 08:36:20;;;;;;;21.50;12.55;;;7.30;99.90;;;;;;5015694;28;20524;-78
2022/12/19 08:38:47;;;;;;;16.80;11.55;;;7.30;99.90;;;;;;5033824;28;20022;-78
2022/12/19 08:41:13;;;;;;;17.48;12.00;;;7.30;99.90;;;;;;5015870;28;20071;-89
2022/12/19 08:43:39;;;;;;;17.77;11.40;;;7.40;99.90;;;;;;5000297;28;20175;-86
2022/12/19 08:46:05;;;;;;;19.67;11.02;;;7.40;99.90;;;;;;5016628;28;20112;-88
2022/12/19 08:48:32;;;;;;;16.30;10.55;;;7.40;99.90;;;;;;5033627;28;20064;-88
2022/12/19 08:51:06;;;;;;;19.98;11.18;;;7.40;99.90;;;;;;5016100;28;20045;-86
2022/12/19 08:53:35;;;;;;;17.75;10.20;;;7.40;99.90;;;;;;5033795;28;20070;-86
2022/12/19 08:56:05;;;;;;;14.38;9.73;;;7.40;99.90;;;;;;5015740;28;20033;-85
2022/12/19 08:58:31;;;;;;;14.13;9.82;;;7.50;99.90;;;;;;5016835;28;20071;-85
2022/12/19 09:01:03;;;;;;;16.30;10.30;;;7.40;99.90;;;;;;5034271;28;20025;-87
2022/12/19 09:03:30;;;;;;;17.67;10.35;;;7.50;99.90;;;;;;5035212;28;20151;-83
2022/12/19 09:05:59;;;;;;;13.93;9.05;;;7.50;99.90;;;;;;5004602;28;20484;-75
2022/12/19 09:08:30;;;;;;;15.20;9.35;;;7.50;99.90;;;;;;5033033;28;20025;-77
2022/12/19 09:11:01;;;;;;;14.45;9.25;;;7.50;99.90;;;;;;5016292;28;20053;-77
2022/12/19 09:13:27;;;;;;;14.10;8.98;;;7.60;99.90;;;;;;5033299;28;20026;-79
2022/12/19 09:16:04;;;;;;;15.50;8.75;;;7.60;99.90;;;;;;5033257;28;20040;-78
2022/12/19 09:18:30;;;;;;;13.95;8.68;;;7.60;99.90;;;;;;5015635;28;20111;-79
2022/12/19 09:20:57;;;;;;;12.43;7.82;;;7.60;99.90;;;;;;5015182;28;20028;-79
2022/12/19 09:23:25;;;;;;;14.80;8.63;;;7.60;99.90;;;;;;5032886;28;20032;-78
2022/12/19 09:25:55;;;;;;;13.15;8.30;;;7.70;99.90;;;;;;5015636;28;20033;-78
2022/12/19 09:28:21;;;;;;;12.68;8.00;;;7.70;99.90;;;;;;5015194;28;20080;-79
2022/12/19 09:31:12;;;;;;;13.75;9.23;;;7.70;99.90;;;;;;5032812;28;20018;-78
2022/12/19 09:33:38;;;;;;;15.55;8.95;;;7.70;99.90;;;;;;5033069;28;20409;-79
2022/12/19 09:36:05;;;;;;;12.68;8.38;;;7.70;99.90;;;;;;5032889;28;20046;-80
2022/12/19 09:38:32;;;;;;;13.10;7.97;;;7.70;99.90;;;;;;5003268;28;20082;-82
2022/12/19 09:41:06;;;;;;;14.93;8.85;;;7.70;99.90;;;;;;5036990;28;20034;-82
2022/12/19 09:43:50;;;;;;;14.65;9.20;;;7.80;99.90;;;;;;5037099;28;20090;-78
2022/12/19 09:46:18;;;;;;;14.60;9.23;;;7.80;99.90;;;;;;5033709;28;20090;-82
2022/12/19 09:48:52;;;;;;;12.05;8.88;;;7.70;99.90;;;;;;5015238;28;20454;-86
2022/12/19 09:51:31;;;;;;;13.32;9.02;;;7.80;99.90;;;;;;5035000;28;20083;-83
2022/12/19 09:54:14;;;;;;;12.00;8.48;;;7.80;99.90;;;;;;5036859;28;20021;-85
2022/12/19 09:56:42;;;;;;;15.13;8.70;;;7.80;99.90;;;;;;5019021;28;20079;-84
2022/12/19 09:59:23;;;;;;;11.80;8.25;;;7.90;99.90;;;;;;5018729;28;20355;-84
2022/12/19 10:01:56;;;;;;;15.50;9.52;;;7.80;99.90;;;;;;5036553;28;20025;-79
2022/12/19 10:04:25;;;;;;;14.93;8.93;;;7.90;99.90;;;;;;5036379;28;20025;-80
2022/12/19 10:06:51;;;;;;;13.45;8.50;;;7.90;99.90;;;;;;5018743;28;20492;-79
2022/12/19 10:09:20;;;;;;;16.08;9.13;;;7.90;99.90;;;;;;5018303;28;20482;-77
2022/12/19 10:12:06;;;;;;;16.77;8.65;;;8.00;99.90;;;;;;5036512;28;20412;-79
2022/12/19 10:15:16;;;;;;;11.85;7.60;;;7.90;99.90;;;;;;5018841;28;20476;-79
2022/12/19 10:17:51;;;;;;;12.65;8.40;;;7.90;99.90;;;;;;5016181;28;20045;-78
2022/12/19 10:20:27;;;;;;;12.98;8.57;;;8.00;99.90;;;;;;5018541;28;20018;-78
2022/12/19 10:22:52;;;;;;;12.43;7.72;;;8.00;99.90;;;;;;5035821;28;20032;-79
2022/12/19 10:25:21;;;;;;;14.68;9.48;;;8.00;99.90;;;;;;5018302;28;20358;-78
2022/12/19 10:27:55;;;;;;;13.23;8.95;;;8.00;99.90;;;;;;5035730;28;20018;-79
2022/12/19 10:30:22;;;;;;;15.48;8.68;;;8.00;99.90;;;;;;5035690;28;20155;-78
2022/12/19 10:33:09;;;;;;;11.23;7.93;;;8.00;99.90;;;;;;5035590;28;20029;-79
2022/12/19 10:35:41;;;;;;;12.50;8.70;;;8.00;99.90;;;;;;5035881;28;20365;-79
2022/12/19 10:38:20;;;;;;;14.23;8.80;;;8.10;99.90;;;;;;5035570;28;20021;-78
2022/12/19 10:41:12;;;;;;;12.95;7.97;;;8.10;99.90;;;;;;5017761;28;20483;-79
2022/12/19 10:44:07;;;;;;;11.23;7.60;;;8.10;99.90;;;;;;5035742;28;20066;-78
2022/12/19 10:46:48;;;;;;;11.23;8.30;;;8.10;99.90;;;;;;5017482;28;20136;-78
2022/12/19 10:49:16;;;;;;;12.20;8.30;;;8.10;99.90;;;;;;5035506;28;20421;-78
2022/12/19 10:52:01;;;;;;;17.63;8.52;;;8.10;99.90;;;;;;5017704;28;20410;-79
2022/12/19 10:54:36;;;;;;;13.50;8.52;;;8.10;99.90;;;;;;5035093;28;20033;-79
2022/12/19 10:57:20;;;;;;;14.73;8.23;;;8.20;99.90;;;;;;5017596;28;20035;-79
2022/12/19 11:00:16;;;;;;;11.95;7.75;;;8.20;99.90;;;;;;5017859;28;20071;-79
2022/12/19 11:02:47;;;;;;;13.43;8.30;;;8.20;99.90;;;;;;5034444;28;20083;-80
2022/12/19 11:05:30;;;;;;;14.50;7.82;;;8.20;99.90;;;;;;5016844;28;20025;-84
2022/12/19 11:08:05;;;;;;;10.25;7.20;;;8.20;99.90;;;;;;5017357;28;20462;-81
2022/12/19 11:10:40;;;;;;;11.40;6.97;;;8.30;99.90;;;;;;5016974;28;20029;-79
2022/12/19 11:13:37;;;;;;;13.18;7.63;;;8.30;99.90;;;;;;5034896;28;20021;-79
2022/12/19 11:16:05;;;;;;;12.10;7.20;;;8.30;99.90;;;;;;5034789;28;20239;-79
2022/12/19 11:18:47;;;;;;;14.68;7.32;;;8.40;99.90;;;;;;5017574;28;20041;-80
2022/12/19 11:21:31;;;;;;;9.65;6.60;;;8.40;99.90;;;;;;5017801;28;20022;-79
2022/12/19 11:23:58;;;;;;;9.68;7.03;;;8.40;99.90;;;;;;5034177;28;20441;-80
2022/12/19 11:26:45;;;;;;;12.02;6.80;;;8.40;99.90;;;;;;5017193;28;20029;-78
2022/12/19 11:29:24;;;;;;;9.75;7.30;;;8.40;99.90;;;;;;5035121;28;20064;-80
2022/12/19 11:31:57;;;;;;;11.60;7.07;;;8.40;99.90;;;;;;5017568;28;20025;-81
2022/12/19 11:34:23;;;;;;;;;;;8.40;99.90;;;;;;5019540;28;20040;-83
2022/12/19 11:37:16;;;;;;;9.55;6.60;;;8.50;99.90;;;;;;5036065;28;19916;-83
2022/12/19 11:40:00;;;;;;;11.00;7.50;;;8.50;99.90;;;;;;5018398;28;20071;-81
2022/12/19 11:42:34;;;;;;;11.70;6.93;;;8.50;99.90;;;;;;5019595;28;20029;-83
2022/12/19 11:45:19;;;;;;;9.48;6.05;;;8.50;99.90;;;;;;5018293;28;20032;-82
2022/12/19 11:47:53;;;;;;;11.52;6.47;;;8.60;99.90;;;;;;5018165;28;20030;-81
2022/12/19 11:50:26;;;;;;;11.15;6.60;;;8.60;99.90;;;;;;5019563;28;20108;-82
2022/12/19 11:53:02;;;;;;;9.98;6.35;;;8.60;99.90;;;;;;5038237;28;20060;-81
2022/12/19 11:55:53;;;;;;;8.73;6.35;;;8.60;99.90;;;;;;5038049;28;20057;-82
2022/12/19 11:58:20;;;;;;;11.48;6.20;;;8.60;99.90;;;;;;5020917;28;20115;-82
2022/12/19 12:00:57;;;;;;;8.02;5.85;;;8.60;99.90;;;;;;5019549;28;20168;-82
2022/12/19 12:03:43;;;;;;;9.73;5.88;;;8.60;99.90;;;;;;5035452;28;20048;-82
2022/12/19 12:06:15;;;;;;;10.43;5.85;;;8.70;99.90;;;;;;5034553;28;20025;-81
2022/12/19 12:09:10;;;;;;;9.90;6.50;;;8.70;99.90;;;;;;5017073;28;20029;-81
2022/12/19 12:11:58;;;;;;;10.90;6.55;;;8.70;99.90;;;;;;4995072;28;20030;-81
2022/12/19 12:14:40;;;;;;;7.68;6.20;;;8.70;99.90;;;;;;5032941;28;20025;-83
2022/12/19 12:17:28;;;;;;;8.77;5.80;;;8.70;99.90;;;;;;5033995;28;20112;-83
2022/12/19 12:20:16;;;;;;;7.05;5.43;;;8.80;99.90;;;;;;5033943;28;20033;-78
2022/12/19 12:23:02;;;;;;;9.18;5.97;;;8.80;99.90;;;;;;5016969;28;20045;-78
2022/12/19 12:25:40;;;;;;;11.30;5.95;;;8.80;99.90;;;;;;5016381;28;20029;-78
2022/12/19 12:28:43;;;;;;;9.25;5.38;;;8.80;99.90;;;;;;5033941;28;20018;-79
2022/12/19 12:31:41;;;;;;;11.00;5.60;;;8.90;99.90;;;;;;5033433;28;20143;-78
2022/12/19 12:34:16;;;;;;;7.18;4.93;;;8.90;99.90;;;;;;5033351;28;20026;-77
2022/12/19 12:37:20;;;;;;;7.30;5.10;;;8.90;99.90;;;;;;5033561;28;20462;-77
2022/12/19 12:39:54;;;;;;;7.93;4.90;;;8.90;99.90;;;;;;5033610;28;20026;-77
2022/12/19 12:42:37;;;;;;;7.72;5.18;;;9.00;99.90;;;;;;5033218;28;20028;-78
2022/12/19 12:45:26;;;;;;;8.40;5.10;;;9.00;99.90;;;;;;5033304;28;20105;-78
2022/12/19 12:47:52;;;;;;;7.40;4.25;;;9.00;99.90;;;;;;5033756;28;20097;-78
2022/12/19 12:50:22;;;;;;;8.73;4.38;;;9.00;99.90;;;;;;5032925;28;20026;-78
2022/12/19 12:52:55;;;;;;;10.55;4.65;;;9.10;99.90;;;;;;5033132;28;20458;-77
2022/12/19 12:55:32;;;;;;;;;;;9.10;99.90;;;;;;5015377;28;20048;-77
2022/12/19 12:57:59;;;;;;;7.00;4.32;;;9.10;99.90;;;;;;5015538;28;20007;-79
2022/12/19 13:00:32;;;;;;;7.88;5.15;;;9.20;99.90;;;;;;5015698;28;20037;-78
2022/12/19 13:03:05;;;;;;;6.55;4.32;;;9.10;99.90;;;;;;5015726;28;20052;-77
2022/12/19 13:05:31;;;;;;;7.93;4.88;;;9.20;99.90;;;;;;5015554;28;20461;-84
2022/12/19 13:07:57;;;;;;;7.78;4.22;;;9.20;99.90;;;;;;5015484;28;20071;-84
2022/12/19 13:10:24;;;;;;;6.65;4.25;;;9.30;99.90;;;;;;5015633;28;20025;-84